Greenwood, WI (54437)

10:11 AM CST on December 21, 2014 (GMT -0600)
Backyard, N. Andrews Ave | Change Station
CLOSE
Current Station
Personal Weather Station
Location: Greenwood, WI
Elevation: 1161 ft
Nearby Weather Stations

Elev 1161 ft 44.77 °N, 90.60 °W | Updated 1 second ago

Fog
Fog
31.5 °F
Feels Like 32 °F
N
1.8
Wind Variable Wind from South
Gusts 5.8 mph

Today
High -- | Low -- °F
--% Chance of Precip.
Yesterday
High -- | Low -- °F
Precip. -- in
7:36 AM 4:24 PM
Waning Crescent, 0% visible
Pressure 30.06 in
Visibility 1.2 miles
Clouds Overcast 300 ft
Windchill 32 °F
Dew Point 29 °F
Humidity 89%
Rainfall 0.00 in
Snow Depth Not available.
UV 0 out of 12
Pollen .10 out of 12
Air Quality Not available.
Flu Activity Not available.
METAR KMFI 211554Z AUTO 15009KT 1 1/4SM BR OVC003 M01/M02 A3000 RMK AO2 SLP177 I1000 T10061017

More Conditions Fewer Conditions

Pressure 30.06 in
Visibility 1.2 miles
Clouds Overcast 300 ft
Windchill 32 °F
Dew Point 29 °F
Humidity 89%
Rainfall 0.00 in
Snow Depth Not available.
UV 0 out of 12
Pollen .10 out of 12
Air Quality Not available.
Flu Activity Not available.
METAR KMFI 211554Z AUTO 15009KT 1 1/4SM BR OVC003 M01/M02 A3000 RMK AO2 SLP177 I1000 T10061017

More Conditions Fewer Conditions

Nowcast | as of 9:09 am CST on December 21, 2014

Expect some light rain or light snow to develop later this morning. Light icing could also develop depending on how close to freezing temperatures are.

×

10-Day Weather Forecast

Almanac

Astronomy

Dec. 21, 2014 Rise Set
Actual Time
Civil Twilight
Nautical Twilight
Astronomical Twilight
Moon
Length of Visible Light
Length of Day
Tomorrow will be .
, % of the Moon is Illuminated

Today's Extremes

State Highs State Lows

Community

WunderPhotos

Upload Photos

1,779,423 photos uploaded!

WunderBlogs® & News

Nearby

Air Quality

  Air Quality AQ Index Pollutant
Not available.

Snow Depth

Station Depth Elevation

Earthquake Activity

City Distance Mag. Time & Date
Minimum magnitude displayed is 2.5.

Coastal Water Temperatures

Place Temperature

Nearby Weather Stations